sensor_id;sensor_type;location;lat;lon;timestamp;temperature;humidity
1129;DHT22;553;51.038;7.216;2023-02-01T00:01:08;6.50;99.90
1129;DHT22;553;51.038;7.216;2023-02-01T00:03:35;6.40;99.90
1129;DHT22;553;51.038;7.216;2023-02-01T00:06:02;6.40;99.90
1129;DHT22;553;51.038;7.216;2023-02-01T00:08:29;6.40;99.90
1129;DHT22;553;51.038;7.216;2023-02-01T00:11:05;6.40;99.90
1129;DHT22;553;51.038;7.216;2023-02-01T00:13:33;6.40;99.90
1129;DHT22;553;51.038;7.216;2023-02-01T00:18:33;6.50;99.90
1129;DHT22;553;51.038;7.216;2023-02-01T00:21:00;6.50;99.90
1129;DHT22;553;51.038;7.216;2023-02-01T00:23:27;6.50;99.90
1129;DHT22;553;51.038;7.216;2023-02-01T00:25:54;6.40;99.90
1129;DHT22;553;51.038;7.216;2023-02-01T00:28:20;6.50;99.90
1129;DHT22;553;51.038;7.216;2023-02-01T00:30:59;6.40;99.90
1129;DHT22;553;51.038;7.216;2023-02-01T00:33:27;6.40;99.90
1129;DHT22;553;51.038;7.216;2023-02-01T00:35:57;6.30;99.90
1129;DHT22;553;51.038;7.216;2023-02-01T00:38:26;6.50;99.90
1129;DHT22;553;51.038;7.216;2023-02-01T00:40:53;6.40;99.90
1129;DHT22;553;51.038;7.216;2023-02-01T00:43:20;6.40;99.90
1129;DHT22;553;51.038;7.216;2023-02-01T00:45:47;6.40;99.90
1129;DHT22;553;51.038;7.216;2023-02-01T00:48:14;6.40;99.90
1129;DHT22;553;51.038;7.216;2023-02-01T00:50:43;6.40;99.90
1129;DHT22;553;51.038;7.216;2023-02-01T00:53:10;6.40;99.90
1129;DHT22;553;51.038;7.216;2023-02-01T00:55:37;6.30;99.90
1129;DHT22;553;51.038;7.216;2023-02-01T00:58:05;6.30;99.90
1129;DHT22;553;51.038;7.216;2023-02-01T01:00:32;6.30;99.90
1129;DHT22;553;51.038;7.216;2023-02-01T01:02:59;6.40;99.90
1129;DHT22;553;51.038;7.216;2023-02-01T01:05:26;6.50;99.90
1129;DHT22;553;51.038;7.216;2023-02-01T01:07:54;6.40;99.90
1129;DHT22;553;51.038;7.216;2023-02-01T01:10:20;6.40;99.90
1129;DHT22;553;51.038;7.216;2023-02-01T01:12:48;6.20;99.90
1129;DHT22;553;51.038;7.216;2023-02-01T01:15:14;6.30;99.90
1129;DHT22;553;51.038;7.216;2023-02-01T01:17:41;6.20;99.90
1129;DHT22;553;51.038;7.216;2023-02-01T01:20:09;6.20;99.90
1129;DHT22;553;51.038;7.216;2023-02-01T01:22:36;6.10;99.90
1129;DHT22;553;51.038;7.216;2023-02-01T01:25:03;6.10;99.90
1129;DHT22;553;51.038;7.216;2023-02-01T01:27:30;6.10;99.90
1129;DHT22;553;51.038;7.216;2023-02-01T01:29:56;6.20;99.90
1129;DHT22;553;51.038;7.216;2023-02-01T01:32:23;6.20;99.90
1129;DHT22;553;51.038;7.216;2023-02-01T01:34:50;6.00;99.90
1129;DHT22;553;51.038;7.216;2023-02-01T01:37:17;6.10;99.90
1129;DHT22;553;51.038;7.216;2023-02-01T01:39:43;6.20;99.90
1129;DHT22;553;51.038;7.216;2023-02-01T01:42:11;6.20;99.90
1129;DHT22;553;51.038;7.216;2023-02-01T01:47:28;6.20;99.90
1129;DHT22;553;51.038;7.216;2023-02-01T01:49:56;6.10;99.90
1129;DHT22;553;51.038;7.216;2023-02-01T01:52:23;6.10;99.90
1129;DHT22;553;51.038;7.216;2023-02-01T01:54:51;6.00;99.90
1129;DHT22;553;51.038;7.216;2023-02-01T01:57:26;6.00;99.90
1129;DHT22;553;51.038;7.216;2023-02-01T02:00:16;6.00;99.90
1129;DHT22;553;51.038;7.216;2023-02-01T02:02:47;6.00;99.90
1129;DHT22;553;51.038;7.216;2023-02-01T02:05:18;5.90;99.90
1129;DHT22;553;51.038;7.216;2023-02-01T02:07:49;6.00;99.90
1129;DHT22;553;51.038;7.216;2023-02-01T02:10:16;6.00;99.90
1129;DHT22;553;51.038;7.216;2023-02-01T02:12:46;6.00;99.90
1129;DHT22;553;51.038;7.216;2023-02-01T02:15:15;5.90;99.90
1129;DHT22;553;51.038;7.216;2023-02-01T02:17:59;5.90;99.90
1129;DHT22;553;51.038;7.216;2023-02-01T02:20:49;5.80;99.90
1129;DHT22;553;51.038;7.216;2023-02-01T02:23:42;5.80;99.90
1129;DHT22;553;51.038;7.216;2023-02-01T02:26:44;5.80;99.90
1129;DHT22;553;51.038;7.216;2023-02-01T02:29:37;5.80;99.90
1129;DHT22;553;51.038;7.216;2023-02-01T02:32:35;5.80;99.90
1129;DHT22;553;51.038;7.216;2023-02-01T02:35:19;5.90;99.90
1129;DHT22;553;51.038;7.216;2023-02-01T02:38:15;5.80;99.90
1129;DHT22;553;51.038;7.216;2023-02-01T02:41:00;5.90;99.90
1129;DHT22;553;51.038;7.216;2023-02-01T02:43:37;5.90;99.90
1129;DHT22;553;51.038;7.216;2023-02-01T02:46:38;5.80;99.90
1129;DHT22;553;51.038;7.216;2023-02-01T02:49:34;5.80;99.90
1129;DHT22;553;51.038;7.216;2023-02-01T02:52:08;5.90;99.90
1129;DHT22;553;51.038;7.216;2023-02-01T02:54:56;5.80;99.90
1129;DHT22;553;51.038;7.216;2023-02-01T02:57:36;5.90;99.90
1129;DHT22;553;51.038;7.216;2023-02-01T03:00:29;5.80;99.90
1129;DHT22;553;51.038;7.216;2023-02-01T03:03:16;5.80;99.90
1129;DHT22;553;51.038;7.216;2023-02-01T03:06:01;5.70;99.90
1129;DHT22;553;51.038;7.216;2023-02-01T03:08:29;5.70;99.90
1129;DHT22;553;51.038;7.216;2023-02-01T03:10:59;5.70;99.90
1129;DHT22;553;51.038;7.216;2023-02-01T03:19:03;5.70;99.90
1129;DHT22;553;51.038;7.216;2023-02-01T03:21:47;5.70;99.90
1129;DHT22;553;51.038;7.216;2023-02-01T03:24:20;5.70;99.90
1129;DHT22;553;51.038;7.216;2023-02-01T03:26:53;5.70;99.90
1129;DHT22;553;51.038;7.216;2023-02-01T03:29:29;5.70;99.90
1129;DHT22;553;51.038;7.216;2023-02-01T03:31:58;5.80;99.90
1129;DHT22;553;51.038;7.216;2023-02-01T03:34:25;5.80;99.90
1129;DHT22;553;51.038;7.216;2023-02-01T03:37:08;5.80;99.90
1129;DHT22;553;51.038;7.216;2023-02-01T03:39:48;5.80;99.90
1129;DHT22;553;51.038;7.216;2023-02-01T03:42:27;5.80;99.90
1129;DHT22;553;51.038;7.216;2023-02-01T03:47:42;5.80;99.90
1129;DHT22;553;51.038;7.216;2023-02-01T03:50:12;5.80;99.90
1129;DHT22;553;51.038;7.216;2023-02-01T03:52:44;5.70;99.90
1129;DHT22;553;51.038;7.216;2023-02-01T03:55:15;5.70;99.90
1129;DHT22;553;51.038;7.216;2023-02-01T03:57:45;5.70;99.90
1129;DHT22;553;51.038;7.216;2023-02-01T04:00:21;5.60;99.90
1129;DHT22;553;51.038;7.216;2023-02-01T04:02:50;5.70;99.90
1129;DHT22;553;51.038;7.216;2023-02-01T04:05:17;5.60;99.90
1129;DHT22;553;51.038;7.216;2023-02-01T04:07:53;5.60;99.90
1129;DHT22;553;51.038;7.216;2023-02-01T04:10:20;5.60;99.90
1129;DHT22;553;51.038;7.216;2023-02-01T04:12:47;5.70;99.90
1129;DHT22;553;51.038;7.216;2023-02-01T04:15:14;5.70;99.90
1129;DHT22;553;51.038;7.216;2023-02-01T04:17:41;5.70;99.90
1129;DHT22;553;51.038;7.216;2023-02-01T04:20:08;5.80;99.90
1129;DHT22;553;51.038;7.216;2023-02-01T04:22:36;5.70;99.90
1129;DHT22;553;51.038;7.216;2023-02-01T04:25:03;5.80;99.90
1129;DHT22;553;51.038;7.216;2023-02-01T04:27:32;5.80;99.90
1129;DHT22;553;51.038;7.216;2023-02-01T04:29:58;5.70;99.90
1129;DHT22;553;51.038;7.216;2023-02-01T04:32:25;5.70;99.90
1129;DHT22;553;51.038;7.216;2023-02-01T04:34:52;5.80;99.90
1129;DHT22;553;51.038;7.216;2023-02-01T04:37:18;5.80;99.90
1129;DHT22;553;51.038;7.216;2023-02-01T04:39:45;5.70;99.90
1129;DHT22;553;51.038;7.216;2023-02-01T04:42:12;5.70;99.90
1129;DHT22;553;51.038;7.216;2023-02-01T04:44:39;5.70;99.90
1129;DHT22;553;51.038;7.216;2023-02-01T04:47:08;5.70;99.90
1129;DHT22;553;51.038;7.216;2023-02-01T04:49:36;5.60;99.90
1129;DHT22;553;51.038;7.216;2023-02-01T04:52:03;5.60;99.90
1129;DHT22;553;51.038;7.216;2023-02-01T04:54:30;5.60;99.90
1129;DHT22;553;51.038;7.216;2023-02-01T04:56:56;5.70;99.90
1129;DHT22;553;51.038;7.216;2023-02-01T04:59:23;5.60;99.90
1129;DHT22;553;51.038;7.216;2023-02-01T05:01:50;5.60;99.90
1129;DHT22;553;51.038;7.216;2023-02-01T05:04:16;5.50;99.90
1129;DHT22;553;51.038;7.216;2023-02-01T05:06:45;5.60;99.90
1129;DHT22;553;51.038;7.216;2023-02-01T05:09:12;5.60;99.90
1129;DHT22;553;51.038;7.216;2023-02-01T05:11:38;5.70;99.90
1129;DHT22;553;51.038;7.216;2023-02-01T05:14:24;5.70;99.90
1129;DHT22;553;51.038;7.216;2023-02-01T05:16:50;5.60;99.90
1129;DHT22;553;51.038;7.216;2023-02-01T05:19:17;5.70;99.90
1129;DHT22;553;51.038;7.216;2023-02-01T05:21:45;5.70;99.90
1129;DHT22;553;51.038;7.216;2023-02-01T05:24:12;5.70;99.90
1129;DHT22;553;51.038;7.216;2023-02-01T05:26:48;5.70;99.90
1129;DHT22;553;51.038;7.216;2023-02-01T05:29:16;5.70;99.90
1129;DHT22;553;51.038;7.216;2023-02-01T05:31:45;5.80;99.90
1129;DHT22;553;51.038;7.216;2023-02-01T05:34:12;5.70;99.90
1129;DHT22;553;51.038;7.216;2023-02-01T05:36:39;5.70;99.90
1129;DHT22;553;51.038;7.216;2023-02-01T05:39:06;5.60;99.90
1129;DHT22;553;51.038;7.216;2023-02-01T05:41:34;5.60;99.90
1129;DHT22;553;51.038;7.216;2023-02-01T05:44:01;5.70;99.90
1129;DHT22;553;51.038;7.216;2023-02-01T05:46:28;5.60;99.90
1129;DHT22;553;51.038;7.216;2023-02-01T05:48:55;5.70;99.90
1129;DHT22;553;51.038;7.216;2023-02-01T05:51:21;5.70;99.90
1129;DHT22;553;51.038;7.216;2023-02-01T05:53:48;5.50;99.90
1129;DHT22;553;51.038;7.216;2023-02-01T05:56:15;5.50;99.90
1129;DHT22;553;51.038;7.216;2023-02-01T05:58:41;5.40;99.90
1129;DHT22;553;51.038;7.216;2023-02-01T06:01:08;5.40;99.90
1129;DHT22;553;51.038;7.216;2023-02-01T06:03:35;5.40;99.90
1129;DHT22;553;51.038;7.216;2023-02-01T06:06:02;5.50;99.90
1129;DHT22;553;51.038;7.216;2023-02-01T06:08:29;5.50;99.90
1129;DHT22;553;51.038;7.216;2023-02-01T06:11:04;5.60;99.90
1129;DHT22;553;51.038;7.216;2023-02-01T06:13:31;5.60;99.90
1129;DHT22;553;51.038;7.216;2023-02-01T06:16:01;5.60;99.90
1129;DHT22;553;51.038;7.216;2023-02-01T06:18:28;5.60;99.90
1129;DHT22;553;51.038;7.216;2023-02-01T06:20:58;5.60;99.90
1129;DHT22;553;51.038;7.216;2023-02-01T06:23:27;5.50;99.90
1129;DHT22;553;51.038;7.216;2023-02-01T06:26:02;5.50;99.90
1129;DHT22;553;51.038;7.216;2023-02-01T06:28:31;5.50;99.90
1129;DHT22;553;51.038;7.216;2023-02-01T06:30:58;5.40;99.90
1129;DHT22;553;51.038;7.216;2023-02-01T06:33:29;5.40;99.90
1129;DHT22;553;51.038;7.216;2023-02-01T06:36:01;5.40;99.90
1129;DHT22;553;51.038;7.216;2023-02-01T06:38:28;5.40;99.90
1129;DHT22;553;51.038;7.216;2023-02-01T06:40:56;5.40;99.90
1129;DHT22;553;51.038;7.216;2023-02-01T06:43:24;5.40;99.90
1129;DHT22;553;51.038;7.216;2023-02-01T06:45:51;5.40;99.90
1129;DHT22;553;51.038;7.216;2023-02-01T06:48:18;5.40;99.90
1129;DHT22;553;51.038;7.216;2023-02-01T06:50:45;5.40;99.90
1129;DHT22;553;51.038;7.216;2023-02-01T06:53:12;5.50;99.90
1129;DHT22;553;51.038;7.216;2023-02-01T06:55:39;5.40;99.90
1129;DHT22;553;51.038;7.216;2023-02-01T06:58:06;5.40;99.90
1129;DHT22;553;51.038;7.216;2023-02-01T07:00:32;5.40;99.90
1129;DHT22;553;51.038;7.216;2023-02-01T07:02:59;5.40;99.90
1129;DHT22;553;51.038;7.216;2023-02-01T07:05:26;5.40;99.90
1129;DHT22;553;51.038;7.216;2023-02-01T07:07:53;5.40;99.90
1129;DHT22;553;51.038;7.216;2023-02-01T07:10:19;5.40;99.90
1129;DHT22;553;51.038;7.216;2023-02-01T07:12:47;5.40;99.90
1129;DHT22;553;51.038;7.216;2023-02-01T07:15:13;5.50;99.90
1129;DHT22;553;51.038;7.216;2023-02-01T07:17:40;5.40;99.90
1129;DHT22;553;51.038;7.216;2023-02-01T07:20:08;5.40;99.90
1129;DHT22;553;51.038;7.216;2023-02-01T07:22:34;5.40;99.90
1129;DHT22;553;51.038;7.216;2023-02-01T07:25:01;5.30;99.90
1129;DHT22;553;51.038;7.216;2023-02-01T07:27:34;5.40;99.90
1129;DHT22;553;51.038;7.216;2023-02-01T07:30:01;5.40;99.90
1129;DHT22;553;51.038;7.216;2023-02-01T07:32:29;5.40;99.90
1129;DHT22;553;51.038;7.216;2023-02-01T07:34:57;5.40;99.90
1129;DHT22;553;51.038;7.216;2023-02-01T07:37:24;5.40;99.90
1129;DHT22;553;51.038;7.216;2023-02-01T07:39:51;5.40;99.90
1129;DHT22;553;51.038;7.216;2023-02-01T07:42:18;5.40;99.90
1129;DHT22;553;51.038;7.216;2023-02-01T07:44:45;5.40;99.90
1129;DHT22;553;51.038;7.216;2023-02-01T07:47:11;5.30;99.90
1129;DHT22;553;51.038;7.216;2023-02-01T07:49:38;5.30;99.90
1129;DHT22;553;51.038;7.216;2023-02-01T07:52:05;5.30;99.90
1129;DHT22;553;51.038;7.216;2023-02-01T07:54:31;5.30;99.90
1129;DHT22;553;51.038;7.216;2023-02-01T07:56:58;5.30;99.90
1129;DHT22;553;51.038;7.216;2023-02-01T07:59:25;5.40;99.90
1129;DHT22;553;51.038;7.216;2023-02-01T08:01:51;5.30;99.90
1129;DHT22;553;51.038;7.216;2023-02-01T08:04:18;5.40;99.90
1129;DHT22;553;51.038;7.216;2023-02-01T08:06:45;5.40;99.90
1129;DHT22;553;51.038;7.216;2023-02-01T08:09:12;5.40;99.90
1129;DHT22;553;51.038;7.216;2023-02-01T08:11:39;5.30;99.90
1129;DHT22;553;51.038;7.216;2023-02-01T08:14:05;5.40;99.90
1129;DHT22;553;51.038;7.216;2023-02-01T08:16:34;5.40;99.90
1129;DHT22;553;51.038;7.216;2023-02-01T08:19:02;5.40;99.90
1129;DHT22;553;51.038;7.216;2023-02-01T08:21:30;5.40;99.90
1129;DHT22;553;51.038;7.216;2023-02-01T08:24:08;5.30;99.90
1129;DHT22;553;51.038;7.216;2023-02-01T08:26:35;5.30;99.90
1129;DHT22;553;51.038;7.216;2023-02-01T08:29:05;5.30;99.90
1129;DHT22;553;51.038;7.216;2023-02-01T08:31:33;5.40;99.90
1129;DHT22;553;51.038;7.216;2023-02-01T08:34:01;5.40;99.90
1129;DHT22;553;51.038;7.216;2023-02-01T08:36:31;5.40;99.90
1129;DHT22;553;51.038;7.216;2023-02-01T08:38:58;5.50;99.90
1129;DHT22;553;51.038;7.216;2023-02-01T08:41:26;5.50;99.90
1129;DHT22;553;51.038;7.216;2023-02-01T08:43:54;5.50;99.90
1129;DHT22;553;51.038;7.216;2023-02-01T08:46:21;5.50;99.90
1129;DHT22;553;51.038;7.216;2023-02-01T08:48:49;5.40;99.90
1129;DHT22;553;51.038;7.216;2023-02-01T08:51:18;5.40;99.90
1129;DHT22;553;51.038;7.216;2023-02-01T08:53:46;5.40;99.90
1129;DHT22;553;51.038;7.216;2023-02-01T08:56:14;5.50;99.90
1129;DHT22;553;51.038;7.216;2023-02-01T08:58:42;5.60;99.90
1129;DHT22;553;51.038;7.216;2023-02-01T09:01:12;5.50;99.90
1129;DHT22;553;51.038;7.216;2023-02-01T09:03:40;5.60;99.90
1129;DHT22;553;51.038;7.216;2023-02-01T09:06:09;5.60;99.90
1129;DHT22;553;51.038;7.216;2023-02-01T09:08:37;5.50;99.90
1129;DHT22;553;51.038;7.216;2023-02-01T09:11:06;5.50;99.90
1129;DHT22;553;51.038;7.216;2023-02-01T09:13:33;5.50;99.90
1129;DHT22;553;51.038;7.216;2023-02-01T09:16:00;5.50;99.90
1129;DHT22;553;51.038;7.216;2023-02-01T09:18:27;5.60;99.90
1129;DHT22;553;51.038;7.216;2023-02-01T09:20:54;5.60;99.90
1129;DHT22;553;51.038;7.216;2023-02-01T09:23:21;5.60;99.90
1129;DHT22;553;51.038;7.216;2023-02-01T09:25:48;5.60;99.90
1129;DHT22;553;51.038;7.216;2023-02-01T09:28:18;5.60;99.90
1129;DHT22;553;51.038;7.216;2023-02-01T09:30:45;5.50;99.90
1129;DHT22;553;51.038;7.216;2023-02-01T09:33:12;5.50;99.90
1129;DHT22;553;51.038;7.216;2023-02-01T09:35:39;5.50;99.90
1129;DHT22;553;51.038;7.216;2023-02-01T09:38:05;5.50;99.90
1129;DHT22;553;51.038;7.216;2023-02-01T09:40:34;5.60;99.90
1129;DHT22;553;51.038;7.216;2023-02-01T09:43:13;5.60;99.90
1129;DHT22;553;51.038;7.216;2023-02-01T09:46:03;5.60;99.90
1129;DHT22;553;51.038;7.216;2023-02-01T09:48:36;5.60;99.90
1129;DHT22;553;51.038;7.216;2023-02-01T09:51:09;5.60;99.90
1129;DHT22;553;51.038;7.216;2023-02-01T09:53:43;5.60;99.90
1129;DHT22;553;51.038;7.216;2023-02-01T09:56:20;5.50;99.90
1129;DHT22;553;51.038;7.216;2023-02-01T09:59:04;5.60;99.90
1129;DHT22;553;51.038;7.216;2023-02-01T10:01:35;5.60;99.90
1129;DHT22;553;51.038;7.216;2023-02-01T10:04:10;5.70;99.90
1129;DHT22;553;51.038;7.216;2023-02-01T10:07:02;5.60;99.90
1129;DHT22;553;51.038;7.216;2023-02-01T10:09:49;5.60;99.90
1129;DHT22;553;51.038;7.216;2023-02-01T10:12:45;5.60;99.90
1129;DHT22;553;51.038;7.216;2023-02-01T10:18:04;5.70;99.90
1129;DHT22;553;51.038;7.216;2023-02-01T10:20:41;5.70;99.90
1129;DHT22;553;51.038;7.216;2023-02-01T10:26:12;5.70;99.90
1129;DHT22;553;51.038;7.216;2023-02-01T10:28:44;5.80;99.90
1129;DHT22;553;51.038;7.216;2023-02-01T10:31:12;5.70;99.90
1129;DHT22;553;51.038;7.216;2023-02-01T10:33:49;5.80;99.90
1129;DHT22;553;51.038;7.216;2023-02-01T10:36:25;5.80;99.90
1129;DHT22;553;51.038;7.216;2023-02-01T10:39:00;5.80;99.90
1129;DHT22;553;51.038;7.216;2023-02-01T10:41:38;5.90;99.90
1129;DHT22;553;51.038;7.216;2023-02-01T10:44:11;6.10;99.90
1129;DHT22;553;51.038;7.216;2023-02-01T10:46:39;6.00;99.90
1129;DHT22;553;51.038;7.216;2023-02-01T10:49:17;6.10;99.90
1129;DHT22;553;51.038;7.216;2023-02-01T10:51:51;6.10;99.90
1129;DHT22;553;51.038;7.216;2023-02-01T10:54:21;6.20;99.90
1129;DHT22;553;51.038;7.216;2023-02-01T10:56:50;6.20;99.90
1129;DHT22;553;51.038;7.216;2023-02-01T10:59:24;6.30;99.90
1129;DHT22;553;51.038;7.216;2023-02-01T11:01:59;6.30;99.90
1129;DHT22;553;51.038;7.216;2023-02-01T11:04:26;6.40;99.90
1129;DHT22;553;51.038;7.216;2023-02-01T11:07:15;6.40;99.90
1129;DHT22;553;51.038;7.216;2023-02-01T11:09:49;6.40;99.90
1129;DHT22;553;51.038;7.216;2023-02-01T11:12:35;7.00;99.90
1129;DHT22;553;51.038;7.216;2023-02-01T11:15:23;6.90;99.90
1129;DHT22;553;51.038;7.216;2023-02-01T11:17:53;6.70;99.90
1129;DHT22;553;51.038;7.216;2023-02-01T11:22:59;6.60;99.90
1129;DHT22;553;51.038;7.216;2023-02-01T11:25:26;6.60;99.90
1129;DHT22;553;51.038;7.216;2023-02-01T11:27:54;6.60;99.90
1129;DHT22;553;51.038;7.216;2023-02-01T11:30:41;6.50;99.90
1129;DHT22;553;51.038;7.216;2023-02-01T11:33:15;6.50;99.90
1129;DHT22;553;51.038;7.216;2023-02-01T11:35:43;6.50;99.90
1129;DHT22;553;51.038;7.216;2023-02-01T11:40:47;6.50;99.90
1129;DHT22;553;51.038;7.216;2023-02-01T11:43:25;6.60;99.90
1129;DHT22;553;51.038;7.216;2023-02-01T11:45:59;6.60;99.90
1129;DHT22;553;51.038;7.216;2023-02-01T11:48:29;6.50;99.90
1129;DHT22;553;51.038;7.216;2023-02-01T11:51:34;6.60;99.90
1129;DHT22;553;51.038;7.216;2023-02-01T11:57:25;6.90;99.90
1129;DHT22;553;51.038;7.216;2023-02-01T12:28:02;6.70;99.90
1129;DHT22;553;51.038;7.216;2023-02-01T12:33:27;6.70;99.90
1129;DHT22;553;51.038;7.216;2023-02-01T12:36:16;6.70;99.90
1129;DHT22;553;51.038;7.216;2023-02-01T12:41:47;6.80;99.90
1129;DHT22;553;51.038;7.216;2023-02-01T12:47:29;6.80;99.90
1129;DHT22;553;51.038;7.216;2023-02-01T12:55:28;7.10;99.90
1129;DHT22;553;51.038;7.216;2023-02-01T12:58:12;7.00;99.90
1129;DHT22;553;51.038;7.216;2023-02-01T13:00:46;6.80;99.90
1129;DHT22;553;51.038;7.216;2023-02-01T13:06:13;6.80;99.90
1129;DHT22;553;51.038;7.216;2023-02-01T13:11:40;6.70;99.90
1129;DHT22;553;51.038;7.216;2023-02-01T13:14:43;6.70;99.90
1129;DHT22;553;51.038;7.216;2023-02-01T13:17:22;6.60;99.90
1129;DHT22;553;51.038;7.216;2023-02-01T13:22:39;6.50;99.90
1129;DHT22;553;51.038;7.216;2023-02-01T13:25:13;6.60;99.90
1129;DHT22;553;51.038;7.216;2023-02-01T13:27:42;6.60;99.90
1129;DHT22;553;51.038;7.216;2023-02-01T13:41:54;6.70;99.90
1129;DHT22;553;51.038;7.216;2023-02-01T13:44:32;6.80;99.90
1129;DHT22;553;51.038;7.216;2023-02-01T13:47:02;6.70;99.90
1129;DHT22;553;51.038;7.216;2023-02-01T13:49:38;6.60;99.90
1129;DHT22;553;51.038;7.216;2023-02-01T13:52:06;6.70;99.90
1129;DHT22;553;51.038;7.216;2023-02-01T13:54:43;6.70;99.90
1129;DHT22;553;51.038;7.216;2023-02-01T13:57:34;6.70;99.90
1129;DHT22;553;51.038;7.216;2023-02-01T14:13:38;6.80;99.90
1129;DHT22;553;51.038;7.216;2023-02-01T14:21:28;6.90;99.90
1129;DHT22;553;51.038;7.216;2023-02-01T14:47:43;7.10;99.90
1129;DHT22;553;51.038;7.216;2023-02-01T14:52:45;7.20;99.90
1129;DHT22;553;51.038;7.216;2023-02-01T14:55:21;7.10;99.90
1129;DHT22;553;51.038;7.216;2023-02-01T14:57:54;7.20;99.90
1129;DHT22;553;51.038;7.216;2023-02-01T15:00:26;7.20;99.90
1129;DHT22;553;51.038;7.216;2023-02-01T15:02:55;7.20;99.90
1129;DHT22;553;51.038;7.216;2023-02-01T15:05:26;7.10;99.90
1129;DHT22;553;51.038;7.216;2023-02-01T15:07:58;7.20;99.90
1129;DHT22;553;51.038;7.216;2023-02-01T15:10:27;7.20;99.90
1129;DHT22;553;51.038;7.216;2023-02-01T15:12:56;7.10;99.90
1129;DHT22;553;51.038;7.216;2023-02-01T15:15:24;7.10;99.90
1129;DHT22;553;51.038;7.216;2023-02-01T15:17:56;7.10;99.90
1129;DHT22;553;51.038;7.216;2023-02-01T15:20:28;7.20;99.90
1129;DHT22;553;51.038;7.216;2023-02-01T15:22:59;7.20;99.90
1129;DHT22;553;51.038;7.216;2023-02-01T15:25:28;7.20;99.90
1129;DHT22;553;51.038;7.216;2023-02-01T15:27:56;7.30;99.90
1129;DHT22;553;51.038;7.216;2023-02-01T15:30:25;7.30;99.90
1129;DHT22;553;51.038;7.216;2023-02-01T15:33:25;7.30;99.90
1129;DHT22;553;51.038;7.216;2023-02-01T15:35:52;7.30;99.90
1129;DHT22;553;51.038;7.216;2023-02-01T15:41:15;7.30;99.90
1129;DHT22;553;51.038;7.216;2023-02-01T15:46:18;7.30;99.90
1129;DHT22;553;51.038;7.216;2023-02-01T15:48:50;7.30;99.90
1129;DHT22;553;51.038;7.216;2023-02-01T15:51:27;7.30;99.90
1129;DHT22;553;51.038;7.216;2023-02-01T15:54:06;7.30;99.90
1129;DHT22;553;51.038;7.216;2023-02-01T15:56:36;7.30;99.90
1129;DHT22;553;51.038;7.216;2023-02-01T15:59:06;7.30;99.90
1129;DHT22;553;51.038;7.216;2023-02-01T16:01:38;7.40;99.90
1129;DHT22;553;51.038;7.216;2023-02-01T16:04:24;7.30;99.90
1129;DHT22;553;51.038;7.216;2023-02-01T16:06:54;7.30;99.90
1129;DHT22;553;51.038;7.216;2023-02-01T16:09:24;7.40;99.90
1129;DHT22;553;51.038;7.216;2023-02-01T16:11:59;7.30;99.90
1129;DHT22;553;51.038;7.216;2023-02-01T16:14:26;7.30;99.90
1129;DHT22;553;51.038;7.216;2023-02-01T16:16:56;7.30;99.90
1129;DHT22;553;51.038;7.216;2023-02-01T16:19:23;7.30;99.90
1129;DHT22;553;51.038;7.216;2023-02-01T16:21:55;7.40;99.90
1129;DHT22;553;51.038;7.216;2023-02-01T16:24:22;7.30;99.90
1129;DHT22;553;51.038;7.216;2023-02-01T16:26:51;7.30;99.90
1129;DHT22;553;51.038;7.216;2023-02-01T16:29:18;7.30;99.90
1129;DHT22;553;51.038;7.216;2023-02-01T16:31:45;7.30;99.90
1129;DHT22;553;51.038;7.216;2023-02-01T16:34:16;7.30;99.90
1129;DHT22;553;51.038;7.216;2023-02-01T16:36:49;7.40;99.90
1129;DHT22;553;51.038;7.216;2023-02-01T16:39:22;7.30;99.90
1129;DHT22;553;51.038;7.216;2023-02-01T16:41:49;7.40;99.90
1129;DHT22;553;51.038;7.216;2023-02-01T16:44:16;7.40;99.90
1129;DHT22;553;51.038;7.216;2023-02-01T16:46:44;7.40;99.90
1129;DHT22;553;51.038;7.216;2023-02-01T16:49:33;7.40;99.90
1129;DHT22;553;51.038;7.216;2023-02-01T16:51:59;7.40;99.90
1129;DHT22;553;51.038;7.216;2023-02-01T16:54:27;7.40;99.90
1129;DHT22;553;51.038;7.216;2023-02-01T16:56:53;7.40;99.90
1129;DHT22;553;51.038;7.216;2023-02-01T16:59:20;7.40;99.90
1129;DHT22;553;51.038;7.216;2023-02-01T17:01:47;7.40;99.90
1129;DHT22;553;51.038;7.216;2023-02-01T17:04:14;7.30;99.90
1129;DHT22;553;51.038;7.216;2023-02-01T17:06:42;7.30;99.90
1129;DHT22;553;51.038;7.216;2023-02-01T17:09:13;7.20;99.90
1129;DHT22;553;51.038;7.216;2023-02-01T17:11:40;7.20;99.90
1129;DHT22;553;51.038;7.216;2023-02-01T17:14:14;7.30;99.90
1129;DHT22;553;51.038;7.216;2023-02-01T17:16:42;7.30;99.90
1129;DHT22;553;51.038;7.216;2023-02-01T17:19:19;7.40;99.90
1129;DHT22;553;51.038;7.216;2023-02-01T17:21:50;7.40;99.90
1129;DHT22;553;51.038;7.216;2023-02-01T17:24:21;7.30;99.90
1129;DHT22;553;51.038;7.216;2023-02-01T17:26:48;7.30;99.90
1129;DHT22;553;51.038;7.216;2023-02-01T17:29:18;7.40;99.90
1129;DHT22;553;51.038;7.216;2023-02-01T17:31:52;7.30;99.90
1129;DHT22;553;51.038;7.216;2023-02-01T17:34:20;7.30;99.90
1129;DHT22;553;51.038;7.216;2023-02-01T17:36:48;7.20;99.90
1129;DHT22;553;51.038;7.216;2023-02-01T17:39:15;7.20;99.90
1129;DHT22;553;51.038;7.216;2023-02-01T17:42:01;7.20;99.90
1129;DHT22;553;51.038;7.216;2023-02-01T17:44:28;7.20;99.90
1129;DHT22;553;51.038;7.216;2023-02-01T17:46:55;7.20;99.90
1129;DHT22;553;51.038;7.216;2023-02-01T17:49:25;7.30;99.90
1129;DHT22;553;51.038;7.216;2023-02-01T17:51:55;7.10;99.90
1129;DHT22;553;51.038;7.216;2023-02-01T17:54:22;7.20;99.90
1129;DHT22;553;51.038;7.216;2023-02-01T17:56:51;7.20;99.90
1129;DHT22;553;51.038;7.216;2023-02-01T17:59:18;7.30;99.90
1129;DHT22;553;51.038;7.216;2023-02-01T18:01:45;7.20;99.90
1129;DHT22;553;51.038;7.216;2023-02-01T18:04:15;7.20;99.90
1129;DHT22;553;51.038;7.216;2023-02-01T18:06:42;7.20;99.90
1129;DHT22;553;51.038;7.216;2023-02-01T18:09:09;7.20;99.90
1129;DHT22;553;51.038;7.216;2023-02-01T18:11:36;7.10;99.90
1129;DHT22;553;51.038;7.216;2023-02-01T18:14:03;7.20;99.90
1129;DHT22;553;51.038;7.216;2023-02-01T18:16:32;7.20;99.90
1129;DHT22;553;51.038;7.216;2023-02-01T18:18:59;7.10;99.90
1129;DHT22;553;51.038;7.216;2023-02-01T18:21:36;7.10;99.90
1129;DHT22;553;51.038;7.216;2023-02-01T18:24:03;7.10;99.90
1129;DHT22;553;51.038;7.216;2023-02-01T18:26:31;7.20;99.90
1129;DHT22;553;51.038;7.216;2023-02-01T18:28:57;7.20;99.90
1129;DHT22;553;51.038;7.216;2023-02-01T18:31:27;7.20;99.90
1129;DHT22;553;51.038;7.216;2023-02-01T18:33:56;7.10;99.90
1129;DHT22;553;51.038;7.216;2023-02-01T18:36:24;7.20;99.90
1129;DHT22;553;51.038;7.216;2023-02-01T18:38:51;7.30;99.90
1129;DHT22;553;51.038;7.216;2023-02-01T18:41:22;7.30;99.90
1129;DHT22;553;51.038;7.216;2023-02-01T18:43:50;7.20;99.90
1129;DHT22;553;51.038;7.216;2023-02-01T18:46:17;7.30;99.90
1129;DHT22;553;51.038;7.216;2023-02-01T18:48:45;7.20;99.90
1129;DHT22;553;51.038;7.216;2023-02-01T18:51:15;7.20;99.90
1129;DHT22;553;51.038;7.216;2023-02-01T18:53:43;7.10;99.90
1129;DHT22;553;51.038;7.216;2023-02-01T18:56:13;7.20;99.90
1129;DHT22;553;51.038;7.216;2023-02-01T18:58:41;7.20;99.90
1129;DHT22;553;51.038;7.216;2023-02-01T19:01:13;7.10;99.90
1129;DHT22;553;51.038;7.216;2023-02-01T19:03:41;7.10;99.90
1129;DHT22;553;51.038;7.216;2023-02-01T19:06:13;7.20;99.90
1129;DHT22;553;51.038;7.216;2023-02-01T19:08:40;7.20;99.90
1129;DHT22;553;51.038;7.216;2023-02-01T19:11:08;7.20;99.90
1129;DHT22;553;51.038;7.216;2023-02-01T19:13:36;7.20;99.90
1129;DHT22;553;51.038;7.216;2023-02-01T19:16:11;7.10;99.90
1129;DHT22;553;51.038;7.216;2023-02-01T19:18:39;7.10;99.90
1129;DHT22;553;51.038;7.216;2023-02-01T19:21:10;7.10;99.90